• Join FlightAware (Why Join?)
  • Login
  • US Flag 
10:08AM EST


 

Airport Tracker/Info


-or-


 

Live Flight TrackerFlight Track Log ✈ JIA2290 ✈ 24-May-2013 ✈ KCLT - KEWN

Flight Track Log - Related Links

Times and Time Zones

All times are in EDT time to prevent confusion due to time zone crossing. See the JIA2290 flight status page for this flight to view local times or setup timezone preferences in your user account.

Time Position Orientation Groundspeed Altitude Reporting Facility
EDT Latitude Longitude Course Direction KTS MPH feet Rate Location/Type
09:38AM 35.2328 -80.9392 106° East 145 167 1,700  Level Atlanta Center
09:39AM 35.2822 -80.9194 18° North 204 235 3,800 2,276 Climbing Atlanta Center
09:40AM 35.3017 -80.8653 66° East 260 299 6,100 2,043 Climbing Atlanta Center
09:41AM 35.0978 -80.6255 109° East  Level FlightAware Approximate
09:41AM 35.2917 -80.8022 101° East 294 338 7,000  Level Atlanta Center
09:42AM 35.0667 -80.5002 90° East  Level FlightAware Approximate
09:42AM 35.2714 -80.7494 115° Southeast 307 353 9,300  Level Atlanta Center
09:42AM 35.2497 -80.7122 125° Southeast 301 346 9,800 1,814 Climbing Atlanta Center
09:43AM 35.0368 -80.3738 106° East  Level FlightAware Approximate
09:43AM 35.2075 -80.6250 121° Southeast 328 377 11,900  Level Atlanta Center
09:44AM 35.0067 -80.2475 106° East  Level FlightAware Approximate
09:45AM 35.1114 -80.4136 119° Southeast 357 411 15,800  Level Washington Center
09:46AM 35.0594 -80.3064 121° Southeast 372 428 17,700 1,587 Climbing Washington Center
09:47AM 35.0111 -80.2072 121° Southeast 372 428 19,000 645 Climbing Washington Center
09:48AM 34.9658 -80.0806 114° Southeast 386 444 19,000  Level Washington Center
09:49AM 34.9372 -79.9522 105° East 386 444 19,000  Level Washington Center
09:50AM 34.9400 -79.8231 88° East 381 438 19,000  Level Washington Center
09:51AM 34.9467 -79.6892 86° East 386 444 19,000  Level Washington Center
09:52AM 34.9531 -79.5578 87° East 386 444 19,000  Level Washington Center
09:53AM 34.9594 -79.4264 87° East 386 444 19,000  Level Washington Center
09:54AM 34.9658 -79.2922 87° East 381 438 19,000  Level Washington Center
09:55AM 34.9697 -79.1633 88° East 381 438 19,000  Level Washington Center
09:56AM 34.9778 -79.0369 86° East 381 438 19,000  Level Washington Center
09:57AM 34.9814 -78.9103 88° East 381 438 19,000  Level Washington Center
09:58AM 34.9703 -78.7728 96° East 371 427 19,000  Level Washington Center
09:59AM 34.9569 -78.6483 97° East 371 427 19,000  Level Washington Center
10:00AM 34.9411 -78.5286 99° East 366 421 19,000 -555 Level Washington Center
10:01AM 34.9275 -78.4039 98° East 366 421 17,900 -1,068 Descending Washington Center
10:02AM 34.9136 -78.2769 98° East 371 427 16,900 -992 Descending Washington Center
10:03AM 34.8956 -78.1547 100° East 371 427 15,900 -942 Descending Washington Center
10:04AM 34.8833 -78.0328 97° East 371 427 15,000 -1,119 Descending Washington Center
10:05AM 34.8858 -77.9139 88° East 361 415 13,700 -1,412 Descending Washington Center
10:06AM 34.9108 -77.7981 75° East 349 402 12,200 -1,475 Descending Washington Center
10:07AM 34.9358 -77.6897 74° East 344 396 10,700 -1,488 Descending Washington Center
10:08AM 34.9564 -77.5864 76° East 334 384 9,200 -1,488 Descending Washington Center
10:09AM 34.9683 -77.4878 82° East 306 352 7,700 -1,488 Descending Washington Center
10:10AM 34.9825 -77.3944 79° East 286 329 6,200 -1,525 Descending Washington Center
10:11AM 34.9919 -77.3058 83° East 275 316 4,700 -1,552 Descending Washington Center